Gloucester City, NJ (08030)

03:44 EST le 26 novembre 2014 (GMT -0500)
Nicholson Rd | Change Station
CLOSE
Current Station
Stations météorologiques personnelles
Location: Audubon, NJ
Altitude: 56 ft
Stations météo à proximité

Alt. 56 ft 39.90 °N, 75.07 °W | Updated 13 seconds ago

Couvert
Couvert
47.7 ° F
Paraît 48 ° F
N
1.0
Vent Variable Vent de NNO
Gusts 1.0 mph

Aujourd'hui
Haut(e) -- | Bas -- ° F
--% Risque de précip.
Hier
Haut(e) -- | Bas -- ° F
Precip. -- pouce
6:57 AM 4:37 PM
Lune montante, 18% visible
Pression 30.18 pouce
Visibilité 10.0 Miles terrestres
Nuages Nuageux 8500 ft
Couvert 10000 ft
Refroidissement éolien 48 ° F
Point de rosée 37 ° F
Humidité 66%
Précipitations 0.00 pouce
Profondeur de la couche neigeuse Non disponible.
UV 0 sur 12
Pollen .10 sur 12
Qualité de l'air Non disponible.
Flu Activity Non disponible.
METAR KPHL 260754Z 00000KT 10SM BKN085 OVC100 08/03 A3018 RMK AO2 SLP219 T00780033 $

More Conditions Fewer Conditions

Pression 30.18 pouce
Visibilité 10.0 Miles terrestres
Nuages Nuageux 8500 ft
Couvert 10000 ft
Refroidissement éolien 48 ° F
Point de rosée 37 ° F
Humidité 66%
Précipitations 0.00 pouce
Profondeur de la couche neigeuse Non disponible.
UV 0 sur 12
Pollen .10 sur 12
Qualité de l'air Non disponible.
Flu Activity Non disponible.
METAR KPHL 260754Z 00000KT 10SM BKN085 OVC100 08/03 A3018 RMK AO2 SLP219 T00780033 $

More Conditions Fewer Conditions

10-Day Weather Forecast

Almanac

Astronomie

Nov. 26, 2014 Lever Coucher
Temps réel
Crépuscule civil
Crépuscule nautique
Crépuscule astronomique
Lune
Durée de lumière visible
Longueur du jour
Tomorrow will be .
, % of the Moon is Illuminated

Extrêmes aujourd'hui

State Highs State Lows

Community

WunderPhotos

Upload Photos

1,773,694 Photos téléchargées !

WunderBlogs® & News

Nearby

Qualité de l'air

  Qualité de l'air Indice de la qualité de l'air Polluant
Not available.

Épaisseur de neige

Station Depth Altitude

Activité sismique

Ville Distance Mag. Time & Date
Minimum magnitude displayed is 2.5.

Températures des eaux côtières

Lieu Température

Stations météo à proximité